Time;durP1;ratioP1;P1;durP2;ratioP2;P2;SDS_P1;SDS_P2;PMS_P1;PMS_P2;Temp;Humidity;BMP_temperature;BMP_pressure;BME280_temperature;BME280_humidity;BME280_pressure;Samples;Min_cycle;Max_cycle;Signal;HPM_P1;HPM_P2
2021/04/10 00:01:43;;;;;;;;;;;;;;;5.43;100.00;100510.03;5091144;28;20523;-70
2021/04/10 00:04:09;;;;;;;;;;;;;;;5.46;100.00;100506.28;5091267;28;20038;-70
2021/04/10 00:06:35;;;;;;;;;;;;;;;5.53;100.00;100499.53;5091341;28;19966;-70
2021/04/10 00:09:01;;;;;;;;;;;;;;;5.58;100.00;100513.56;5091349;28;19963;-70
2021/04/10 00:11:28;;;;;;;;;;;;;;;5.61;100.00;100505.31;5091493;28;19927;-70
2021/04/10 00:13:54;;;;;;;;;;;;;;;5.65;100.00;100503.25;5091225;28;19924;-70
2021/04/10 00:16:20;;;;;;;;;;;;;;;5.66;100.00;100505.00;5091152;28;19936;-70
2021/04/10 00:18:46;;;;;;;;;;;;;;;5.58;100.00;100497.41;5073214;28;19924;-70
2021/04/10 00:21:11;;;;;;;;;;;;;;;5.48;100.00;100501.69;5091246;28;19931;-70
2021/04/10 00:23:42;;;;;;;;;;;;;;;5.32;100.00;100501.78;5091421;28;19925;-70
2021/04/10 00:26:08;;;;;;;;;;;;;;;5.20;100.00;100509.63;5090977;28;20302;-70
2021/04/10 00:28:35;;;;;;;;;;;;;;;5.13;100.00;100512.81;5091103;28;19924;-70
2021/04/10 00:31:06;;;;;;;;;;;;;;;5.06;100.00;100516.84;5091370;28;19928;-70
2021/04/10 00:33:32;;;;;;;;;;;;;;;4.95;100.00;100512.13;5091007;28;19930;-70
2021/04/10 00:35:58;;;;;;;;;;;;;;;4.86;100.00;100511.72;5090699;28;19923;-70
2021/04/10 00:38:24;;;;;;;;;;;;;;;4.79;100.00;100513.03;5091120;28;19924;-70
2021/04/10 00:40:50;;;;;;;;;;;;;;;4.72;100.00;100514.38;5095343;28;19924;-70
2021/04/10 00:43:16;;;;;;;;;;;;;;;4.64;100.00;100511.28;5095269;28;20466;-70
2021/04/10 00:45:42;;;;;;;;;;;;;;;4.53;100.00;100512.78;5076778;28;20040;-70
2021/04/10 00:48:09;;;;;;;;;;;;;;;4.38;100.00;100519.06;5076982;28;20298;-70
2021/04/10 00:50:35;;;;;;;;;;;;;;;4.28;100.00;100521.44;5095032;28;19931;-70
2021/04/10 00:53:01;;;;;;;;;;;;;;;4.23;100.00;100526.19;5094727;28;20019;-70
2021/04/10 00:55:27;;;;;;;;;;;;;;;4.24;100.00;100530.63;5076841;28;19931;-70
2021/04/10 00:57:53;;;;;;;;;;;;;;;4.32;100.00;100530.19;5094648;28;20023;-70
2021/04/10 01:00:20;;;;;;;;;;;;;;;4.41;100.00;100532.34;5095164;28;20034;-70
2021/04/10 01:02:47;;;;;;;;;;;;;;;4.46;100.00;100519.50;5094784;28;19924;-70
2021/04/10 01:05:13;;;;;;;;;;;;;;;4.50;100.00;100515.66;5095078;28;19924;-70
2021/04/10 01:07:39;;;;;;;;;;;;;;;4.50;100.00;100504.91;5077075;28;20017;-70
2021/04/10 01:10:06;;;;;;;;;;;;;;;4.46;100.00;100505.16;5094243;28;20499;-70
2021/04/10 01:12:42;;;;;;;;;;;;;;;4.38;100.00;100505.63;5095056;28;19928;-70
2021/04/10 01:15:12;;;;;;;;;;;;;;;4.28;100.00;100504.44;5094527;28;19924;-70
2021/04/10 01:17:41;;;;;;;;;;;;;;;4.17;100.00;100505.94;5094831;28;19924;-70
2021/04/10 01:20:22;;;;;;;;;;;;;;;4.02;100.00;100502.31;5094476;28;19925;-70
2021/04/10 01:23:00;;;;;;;;;;;;;;;3.91;100.00;100511.94;5094701;28;19924;-70
2021/04/10 01:25:30;;;;;;;;;;;;;;;3.76;100.00;100497.56;5076109;28;19925;-70
2021/04/10 01:27:57;;;;;;;;;;;;;;;3.62;100.00;100490.28;5094087;28;20391;-70
2021/04/10 01:30:25;;;;;;;;;;;;;;;3.49;100.00;100490.09;5076544;28;20322;-70
2021/04/10 01:32:53;;;;;;;;;;;;;;;3.38;100.00;100484.44;5094062;28;19924;-70
2021/04/10 01:35:19;;;;;;;;;;;;;;;3.29;100.00;100480.47;5076090;28;20042;-70
2021/04/10 01:37:51;;;;;;;;;;;;;;;3.21;100.00;100483.56;5075984;28;20018;-70
2021/04/10 01:40:18;;;;;;;;;;;;;;;3.16;100.00;100478.44;5094367;28;20459;-70
2021/04/10 01:42:45;;;;;;;;;;;;;;;3.18;100.00;100487.28;5076173;28;20318;-70
2021/04/10 01:45:12;;;;;;;;;;;;;;;3.17;100.00;100490.91;5075777;28;19931;-70
2021/04/10 01:47:42;;;;;;;;;;;;;;;3.24;100.00;100486.06;5075850;28;19928;-70
2021/04/10 01:50:09;;;;;;;;;;;;;;;3.34;100.00;100486.44;5058903;28;20307;-70
2021/04/10 01:52:35;;;;;;;;;;;;;;;3.42;100.00;100488.69;5094061;28;19924;-70
2021/04/10 01:55:03;;;;;;;;;;;;;;;3.48;100.00;100485.69;5075763;28;19928;-70
2021/04/10 01:57:32;;;;;;;;;;;;;;;3.51;100.00;100478.34;5093868;28;19923;-70
2021/04/10 01:59:59;;;;;;;;;;;;;;;3.51;100.00;100472.97;5093935;28;19993;-70
2021/04/10 02:02:41;;;;;;;;;;;;;;;3.45;100.00;100489.41;5093928;28;20190;-70
2021/04/10 02:05:11;;;;;;;;;;;;;;;3.35;100.00;100480.13;5093585;28;20047;-70
2021/04/10 02:07:41;;;;;;;;;;;;;;;3.29;100.00;100488.53;5075374;28;19954;-70
2021/04/10 02:10:10;;;;;;;;;;;;;;;3.23;100.00;100491.53;5093592;28;19950;-70
2021/04/10 02:12:50;;;;;;;;;;;;;;;3.17;100.00;100492.72;5075409;28;19924;-70
2021/04/10 02:15:30;;;;;;;;;;;;;;;3.15;100.00;100498.19;5075299;28;20026;-70
2021/04/10 02:17:58;;;;;;;;;;;;;;;3.21;100.00;100499.66;5093363;28;19966;-70
2021/04/10 02:20:26;;;;;;;;;;;;;;;3.27;100.00;100506.50;5075609;28;19932;-70
2021/04/10 02:22:56;;;;;;;;;;;;;;;3.34;100.00;100499.84;5075197;28;19954;-70
2021/04/10 02:25:29;;;;;;;;;;;;;;;3.41;100.00;100509.31;5092860;28;20026;-70
2021/04/10 02:27:56;;;;;;;;;;;;;;;3.49;100.00;100516.94;5075319;28;19924;-70
2021/04/10 02:30:23;;;;;;;;;;;;;;;3.56;100.00;100517.47;5075047;28;19991;-70
2021/04/10 02:32:53;;;;;;;;;;;;;;;3.65;100.00;100511.59;5093185;28;19957;-70
2021/04/10 02:35:24;;;;;;;;;;;;;;;3.69;100.00;100510.47;5093177;28;19924;-70
2021/04/10 02:37:51;;;;;;;;;;;;;;;3.77;100.00;100510.00;5075028;28;19946;-70
2021/04/10 02:40:20;;;;;;;;;;;;;;;3.82;100.00;100524.06;5093625;28;20298;-70
2021/04/10 02:42:48;;;;;;;;;;;;;;;3.87;100.00;100527.34;5074885;28;19938;-70
2021/04/10 02:45:22;;;;;;;;;;;;;;;3.93;100.00;100526.13;5075021;28;19924;-70
2021/04/10 02:47:50;;;;;;;;;;;;;;;3.99;100.00;100525.78;5074807;28;19966;-70
2021/04/10 02:50:19;;;;;;;;;;;;;;;4.03;100.00;100521.97;5074813;28;19924;-70
2021/04/10 02:52:47;;;;;;;;;;;;;;;4.09;100.00;100529.69;5074648;28;20046;-70
2021/04/10 02:55:17;;;;;;;;;;;;;;;4.11;100.00;100530.44;5092689;28;19928;-70
2021/04/10 02:57:44;;;;;;;;;;;;;;;4.14;100.00;100541.06;5092801;28;20011;-70
2021/04/10 03:00:11;;;;;;;;;;;;;;;4.17;100.00;100535.50;5074393;28;19932;-70
2021/04/10 03:02:43;;;;;;;;;;;;;;;4.21;100.00;100538.88;5074087;28;19955;-70
2021/04/10 03:05:13;;;;;;;;;;;;;;;4.24;100.00;100536.00;5074459;28;19939;-70
2021/04/10 03:07:43;;;;;;;;;;;;;;;4.28;100.00;100540.25;5092621;28;19924;-70
2021/04/10 03:10:11;;;;;;;;;;;;;;;4.32;100.00;100538.25;5074574;28;19927;-70
2021/04/10 03:12:38;;;;;;;;;;;;;;;4.33;100.00;100531.94;5074331;28;20023;-70
2021/04/10 03:15:04;;;;;;;;;;;;;;;4.35;100.00;100532.69;5074558;28;19950;-70
2021/04/10 03:17:39;;;;;;;;;;;;;;;4.37;100.00;100536.16;5057335;28;20382;-70
2021/04/10 03:20:06;;;;;;;;;;;;;;;4.37;100.00;100538.84;5092684;28;19975;-70
2021/04/10 03:22:34;;;;;;;;;;;;;;;4.38;100.00;100543.25;5093157;28;19924;-70
2021/04/10 03:24:59;;;;;;;;;;;;;;;4.41;100.00;100542.22;5092231;28;19951;-70
2021/04/10 03:27:27;;;;;;;;;;;;;;;4.42;100.00;100544.78;5074548;28;19924;-70
2021/04/10 03:29:54;;;;;;;;;;;;;;;4.33;100.00;100540.00;5074464;28;19924;-70
2021/04/10 03:32:20;;;;;;;;;;;;;;;4.32;100.00;100546.31;5094381;28;19928;-70
2021/04/10 03:34:49;;;;;;;;;;;;;;;4.31;100.00;100547.25;5095141;28;19945;-71
2021/04/10 03:37:16;;;;;;;;;;;;;;;4.31;100.00;100553.47;5094457;28;20015;-70
2021/04/10 03:39:42;;;;;;;;;;;;;;;4.29;100.00;100544.66;5093916;28;20016;-70
2021/04/10 03:42:10;;;;;;;;;;;;;;;4.26;100.00;100552.03;5091711;28;20014;-70
2021/04/10 03:44:37;;;;;;;;;;;;;;;4.23;100.00;100550.38;5091267;28;19946;-70
2021/04/10 03:47:03;;;;;;;;;;;;;;;4.23;100.00;100549.53;5073342;28;20023;-70
2021/04/10 03:49:31;;;;;;;;;;;;;;;4.25;100.00;100555.66;5073750;28;20341;-70
2021/04/10 03:51:59;;;;;;;;;;;;;;;4.20;100.00;100561.31;5091181;28;20334;-71
2021/04/10 03:54:25;;;;;;;;;;;;;;;4.18;100.00;100557.84;5073790;28;20011;-71
2021/04/10 03:56:52;;;;;;;;;;;;;;;4.19;100.00;100562.25;5091474;28;20276;-71
2021/04/10 03:59:24;;;;;;;;;;;;;;;4.20;100.00;100564.00;5073502;28;19931;-71
2021/04/10 04:01:52;;;;;;;;;;;;;;;4.24;100.00;100575.44;5091541;28;19924;-71
2021/04/10 04:04:23;;;;;;;;;;;;;;;4.26;100.00;100566.34;5073639;28;19961;-71
2021/04/10 04:06:48;;;;;;;;;;;;;;;4.29;100.00;100568.84;5091386;28;20409;-71
2021/04/10 04:09:14;;;;;;;;;;;;;;;4.30;100.00;100567.03;5091282;28;19942;-71
2021/04/10 04:11:40;;;;;;;;;;;;;;;4.31;100.00;100574.13;5091182;28;19924;-71
2021/04/10 04:14:06;;;;;;;;;;;;;;;4.31;100.00;100580.34;5090645;28;19924;-71
2021/04/10 04:16:32;;;;;;;;;;;;;;;4.35;100.00;100578.38;5073087;28;20294;-71
2021/04/10 04:18:59;;;;;;;;;;;;;;;4.33;100.00;100580.31;5091189;28;19985;-70
2021/04/10 04:21:25;;;;;;;;;;;;;;;4.33;100.00;100583.00;5091304;28;19924;-70
2021/04/10 04:23:50;;;;;;;;;;;;;;;4.29;100.00;100589.47;5091151;28;19978;-70
2021/04/10 04:26:16;;;;;;;;;;;;;;;4.28;100.00;100599.34;5090979;28;19935;-71
2021/04/10 04:28:42;;;;;;;;;;;;;;;4.28;100.00;100598.50;5056313;28;19996;-71
2021/04/10 04:31:08;;;;;;;;;;;;;;;4.28;100.00;100596.66;5091278;28;19960;-70
2021/04/10 04:33:34;;;;;;;;;;;;;;;4.28;100.00;100606.56;5091078;28;20406;-70
2021/04/10 04:36:00;;;;;;;;;;;;;;;4.32;100.00;100606.28;5090989;28;20391;-70
2021/04/10 04:38:26;;;;;;;;;;;;;;;4.33;100.00;100620.63;5091169;28;19924;-71
2021/04/10 04:40:52;;;;;;;;;;;;;;;4.31;100.00;100623.34;5091161;28;20040;-71
2021/04/10 04:43:18;;;;;;;;;;;;;;;4.31;100.00;100620.66;5091061;28;19997;-71
2021/04/10 04:45:44;;;;;;;;;;;;;;;4.30;100.00;100629.72;5090485;28;19974;-71
2021/04/10 04:48:10;;;;;;;;;;;;;;;4.31;100.00;100622.50;5090766;28;19935;-71
2021/04/10 04:50:36;;;;;;;;;;;;;;;4.35;100.00;100634.81;5091015;28;19963;-71
2021/04/10 04:53:02;;;;;;;;;;;;;;;4.37;100.00;100632.91;5072848;28;19924;-71
2021/04/10 04:55:28;;;;;;;;;;;;;;;4.39;100.00;100633.69;5091035;28;19931;-71
2021/04/10 04:57:54;;;;;;;;;;;;;;;4.38;100.00;100639.16;5090768;28;20007;-71
2021/04/10 05:00:20;;;;;;;;;;;;;;;4.33;100.00;100636.75;5091062;28;19928;-71
2021/04/10 05:02:46;;;;;;;;;;;;;;;4.33;100.00;100636.75;5090708;28;19924;-71
2021/04/10 05:05:12;;;;;;;;;;;;;;;4.30;100.00;100637.78;5090013;28;20032;-71
2021/04/10 05:07:38;;;;;;;;;;;;;;;4.29;100.00;100649.47;5090972;28;19924;-71
2021/04/10 05:10:06;;;;;;;;;;;;;;;4.29;100.00;100641.41;5090621;28;20001;-71
2021/04/10 05:12:31;;;;;;;;;;;;;;;4.32;100.00;100649.28;5090573;28;19924;-71
2021/04/10 05:14:57;;;;;;;;;;;;;;;4.37;100.00;100654.41;5090427;28;20494;-71
2021/04/10 05:17:23;;;;;;;;;;;;;;;4.38;100.00;100661.50;5090672;28;19977;-72
2021/04/10 05:19:49;;;;;;;;;;;;;;;4.40;100.00;100665.00;5089797;28;20549;-71
2021/04/10 05:22:15;;;;;;;;;;;;;;;4.40;100.00;100666.81;5090296;28;19924;-71
2021/04/10 05:24:41;;;;;;;;;;;;;;;4.41;100.00;100669.41;5091103;28;20002;-71
2021/04/10 05:27:07;;;;;;;;;;;;;;;4.42;100.00;100670.28;5094462;28;19950;-72
2021/04/10 05:29:33;;;;;;;;;;;;;;;4.43;100.00;100664.81;5094822;28;19931;-71
2021/04/10 05:32:00;;;;;;;;;;;;;;;4.46;100.00;100675.41;5094080;28;19960;-71
2021/04/10 05:34:26;;;;;;;;;;;;;;;4.45;100.00;100673.66;5094452;28;20311;-71
2021/04/10 05:36:52;;;;;;;;;;;;;;;4.49;100.00;100677.91;5094037;28;19963;-71
2021/04/10 05:39:18;;;;;;;;;;;;;;;4.55;100.00;100678.53;5094140;28;19924;-71
2021/04/10 05:41:44;;;;;;;;;;;;;;;4.57;100.00;100692.72;5075667;28;20101;-72
2021/04/10 05:44:10;;;;;;;;;;;;;;;4.53;100.00;100687.53;5094012;28;20420;-72
2021/04/10 05:46:36;;;;;;;;;;;;;;;4.55;100.00;100690.13;5092252;28;19931;-72
2021/04/10 05:49:02;;;;;;;;;;;;;;;4.52;100.00;100695.69;5088367;28;19971;-72
2021/04/10 05:51:28;;;;;;;;;;;;;;;4.50;100.00;100701.16;5093687;28;19967;-72
2021/04/10 05:53:54;;;;;;;;;;;;;;;4.55;100.00;100702.72;5094076;28;20395;-72
2021/04/10 05:56:19;;;;;;;;;;;;;;;4.53;100.00;100703.66;5093120;28;19934;-72
2021/04/10 05:58:45;;;;;;;;;;;;;;;4.54;100.00;100701.84;5093474;28;19977;-72
2021/04/10 06:01:12;;;;;;;;;;;;;;;4.53;100.00;100702.81;5093390;28;20011;-72
2021/04/10 06:03:38;;;;;;;;;;;;;;;4.51;100.00;100704.69;5075554;28;19924;-72
2021/04/10 06:06:04;;;;;;;;;;;;;;;4.52;100.00;100707.31;5093406;28;19968;-72
2021/04/10 06:08:30;;;;;;;;;;;;;;;4.58;100.00;100705.22;5093657;28;19928;-72
2021/04/10 06:10:56;;;;;;;;;;;;;;;4.62;100.00;100713.06;5093504;28;19935;-72
2021/04/10 06:13:22;;;;;;;;;;;;;;;4.65;100.00;100720.94;5093687;28;20441;-72
2021/04/10 06:15:48;;;;;;;;;;;;;;;4.66;100.00;100724.47;5092643;28;20430;-72
2021/04/10 06:18:14;;;;;;;;;;;;;;;4.66;100.00;100728.06;5092017;28;19928;-72
2021/04/10 06:20:40;;;;;;;;;;;;;;;4.65;100.00;100726.31;5093347;28;20403;-72
2021/04/10 06:23:06;;;;;;;;;;;;;;;4.67;100.00;100729.75;5092876;28;19924;-71
2021/04/10 06:25:32;;;;;;;;;;;;;;;4.67;100.00;100739.66;5093394;28;19928;-72
2021/04/10 06:28:00;;;;;;;;;;;;;;;4.65;100.00;100733.50;5093226;28;20401;-72
2021/04/10 06:30:26;;;;;;;;;;;;;;;4.63;100.00;100746.16;5093644;28;19931;-72
2021/04/10 06:32:52;;;;;;;;;;;;;;;4.65;100.00;100749.63;5092785;28;19924;-72
2021/04/10 06:35:19;;;;;;;;;;;;;;;4.67;100.00;100750.41;5093224;28;19924;-72
2021/04/10 06:37:45;;;;;;;;;;;;;;;4.66;100.00;100752.25;5092441;28;20233;-72
2021/04/10 06:40:11;;;;;;;;;;;;;;;4.67;100.00;100756.66;5093192;28;19996;-72
2021/04/10 06:42:37;;;;;;;;;;;;;;;4.64;100.00;100758.66;5075175;28;20375;-72
2021/04/10 06:45:03;;;;;;;;;;;;;;;4.65;100.00;100755.88;5092666;28;19977;-72
2021/04/10 06:47:33;;;;;;;;;;;;;;;4.67;100.00;100756.66;5092492;28;19950;-72
2021/04/10 06:49:59;;;;;;;;;;;;;;;4.66;100.00;100762.13;5092482;28;19931;-71
2021/04/10 06:52:27;;;;;;;;;;;;;;;4.65;100.00;100760.38;5092725;28;19954;-72
2021/04/10 06:54:56;;;;;;;;;;;;;;;4.61;100.00;100764.19;5092542;28;19923;-72
2021/04/10 06:57:23;;;;;;;;;;;;;;;4.62;100.00;100756.06;5092307;28;19936;-72
2021/04/10 06:59:50;;;;;;;;;;;;;;;4.62;100.00;100757.88;5092971;28;19931;-72
2021/04/10 07:02:16;;;;;;;;;;;;;;;4.61;100.00;100759.72;5074152;28;19923;-72
2021/04/10 07:04:42;;;;;;;;;;;;;;;4.62;100.00;100764.13;5073515;28;19924;-70
2021/04/10 07:07:09;;;;;;;;;;;;;;;4.60;100.00;100760.66;5091561;28;20129;-72
2021/04/10 07:09:36;;;;;;;;;;;;;;;4.59;100.00;100766.13;5075121;28;19924;-72
2021/04/10 07:12:03;;;;;;;;;;;;;;;4.58;100.00;100764.38;5092319;28;19924;-71
2021/04/10 07:14:29;;;;;;;;;;;;;;;4.59;100.00;100764.28;5092199;28;19924;-73
2021/04/10 07:16:55;;;;;;;;;;;;;;;4.55;100.00;100764.56;5077577;28;19931;-73
2021/04/10 07:19:22;;;;;;;;;;;;;;;4.57;100.00;100762.63;5092312;28;19924;-72
2021/04/10 07:22:00;;;;;;;;;;;;;;;4.65;100.00;100768.44;5091734;28;19946;-73
2021/04/10 07:24:34;;;;;;;;;;;;;;;4.71;100.00;100765.44;5092418;28;19985;-72
2021/04/10 07:27:01;;;;;;;;;;;;;;;4.76;100.00;100766.03;5092029;28;19928;-73
2021/04/10 07:29:31;;;;;;;;;;;;;;;4.77;100.00;100775.84;5092314;28;19924;-71
2021/04/10 07:31:56;;;;;;;;;;;;;;;4.84;100.00;100777.22;5073907;28;19928;-72
2021/04/10 07:34:23;;;;;;;;;;;;;;;4.83;100.00;100774.63;5092116;28;19931;-71
2021/04/10 07:36:55;;;;;;;;;;;;;;;4.89;100.00;100778.78;5091847;28;19928;-72
2021/04/10 07:39:21;;;;;;;;;;;;;;;4.96;100.00;100778.34;5071270;28;20375;-71
2021/04/10 07:41:57;;;;;;;;;;;;;;;5.08;100.00;100784.88;5053837;28;19925;-72
2021/04/10 07:44:36;;;;;;;;;;;;;;;5.12;100.00;100778.34;5090858;28;19924;-71
2021/04/10 07:47:03;;;;;;;;;;;;;;;5.21;100.00;100774.25;5091273;28;19977;-71
2021/04/10 07:49:29;;;;;;;;;;;;;;;5.24;100.00;100783.97;5091583;28;19924;-71
2021/04/10 07:51:56;;;;;;;;;;;;;;;5.32;100.00;100770.94;5089456;28;20368;-71
2021/04/10 07:54:23;;;;;;;;;;;;;;;5.43;100.00;100778.41;5079322;28;19924;-71
2021/04/10 07:56:53;;;;;;;;;;;;;;;5.55;100.00;100768.72;5073374;28;19925;-72
2021/04/10 07:59:19;;;;;;;;;;;;;;;5.73;100.00;100762.22;5079007;28;19924;-72
2021/04/10 08:01:45;;;;;;;;;;;;;;;5.96;100.00;100765.34;5091580;28;20325;-71
2021/04/10 08:04:12;;;;;;;;;;;;;;;6.15;100.00;100771.38;5091453;28;19924;-72
2021/04/10 08:06:38;;;;;;;;;;;;;;;6.32;100.00;100773.03;5072722;28;19935;-72
2021/04/10 08:09:04;;;;;;;;;;;;;;;6.40;100.00;100771.66;5087879;28;19924;-71
2021/04/10 08:11:31;;;;;;;;;;;;;;;6.28;100.00;100786.78;5091650;28;19981;-71
2021/04/10 08:13:58;;;;;;;;;;;;;;;6.40;100.00;100786.03;5091350;28;19924;-72
2021/04/10 08:16:25;;;;;;;;;;;;;;;6.56;100.00;100785.03;5091244;28;19969;-71
2021/04/10 08:18:53;;;;;;;;;;;;;;;6.66;100.00;100787.06;5091425;28;20405;-71
2021/04/10 08:21:19;;;;;;;;;;;;;;;6.93;100.00;100786.25;5073431;28;19934;-72
2021/04/10 08:23:45;;;;;;;;;;;;;;;7.14;100.00;100791.22;5091250;28;19932;-71
2021/04/10 08:26:12;;;;;;;;;;;;;;;7.26;100.00;100794.94;5090670;28;20129;-71
2021/04/10 08:28:38;;;;;;;;;;;;;;;7.39;100.00;100793.16;5091008;28;19924;-72
2021/04/10 08:31:04;;;;;;;;;;;;;;;7.47;100.00;100790.81;5072909;28;19951;-72
2021/04/10 08:33:30;;;;;;;;;;;;;;;7.27;100.00;100792.13;5090364;28;20326;-72
2021/04/10 08:35:58;;;;;;;;;;;;;;;7.26;100.00;100795.78;5072154;28;20046;-72
2021/04/10 08:38:24;;;;;;;;;;;;;;;7.29;100.00;100795.59;5090661;28;19931;-72
2021/04/10 08:40:51;;;;;;;;;;;;;;;7.30;100.00;100801.88;5079817;28;19978;-72
2021/04/10 08:43:18;;;;;;;;;;;;;;;7.31;100.00;100808.97;5052799;28;19947;-72
2021/04/10 08:45:49;;;;;;;;;;;;;;;7.33;100.00;100812.47;5086490;28;19928;-71
2021/04/10 08:48:15;;;;;;;;;;;;;;;7.40;100.00;100813.78;5090509;28;19989;-71
2021/04/10 08:50:41;;;;;;;;;;;;;;;7.37;100.00;100822.09;5089781;28;19932;-71
2021/04/10 08:53:09;;;;;;;;;;;;;;;7.47;100.00;100820.50;5090165;28;19928;-71
2021/04/10 08:55:35;;;;;;;;;;;;;;;7.74;100.00;100816.03;5090196;28;19939;-71
2021/04/10 08:58:17;;;;;;;;;;;;;;;7.77;100.00;100821.25;5079376;28;19933;-70
2021/04/10 09:00:43;;;;;;;;;;;;;;;8.27;100.00;100813.31;5072584;28;19925;-71
2021/04/10 09:03:08;;;;;;;;;;;;;;;8.61;100.00;100816.38;5074433;28;20170;-71
2021/04/10 09:05:45;;;;;;;;;;;;;;;8.78;100.00;100812.44;5074415;28;20019;-70
2021/04/10 09:08:22;;;;;;;;;;;;;;;8.89;100.00;100809.84;5056169;28;20363;-71
2021/04/10 09:10:49;;;;;;;;;;;;;;;9.13;100.00;100815.28;5074606;28;20350;-71
2021/04/10 09:13:29;;;;;;;;;;;;;;;9.00;100.00;100817.16;5074329;28;19928;-71
2021/04/10 09:16:13;;;;;;;;;;;;;;;9.00;100.00;100825.28;5056086;28;19925;-71
2021/04/10 09:18:39;;;;;;;;;;;;;;;9.03;100.00;100825.06;5056431;28;19924;-70
2021/04/10 09:21:09;;;;;;;;;;;;;;;9.10;100.00;100820.94;5074329;28;19924;-71
2021/04/10 09:23:36;;;;;;;;;;;;;;;9.05;100.00;100825.81;5056450;28;19929;-70
2021/04/10 09:26:05;;;;;;;;;;;;;;;9.24;100.00;100819.06;5073992;28;19925;-71
2021/04/10 09:28:32;;;;;;;;;;;;;;;9.58;100.00;100825.53;5085294;28;19940;-71
2021/04/10 09:30:58;;;;;;;;;;;;;;;9.91;100.00;100820.34;5073282;28;19924;-71
2021/04/10 09:33:32;;;;;;;;;;;;;;;10.36;100.00;100815.06;5094185;28;19986;-71
2021/04/10 09:35:59;;;;;;;;;;;;;;;10.72;100.00;100816.69;5094322;28;19968;-71
2021/04/10 09:38:38;;;;;;;;;;;;;;;11.10;100.00;100816.41;5094362;28;19924;-71
2021/04/10 09:41:04;;;;;;;;;;;;;;;11.78;100.00;100827.09;5094529;28;19924;-71
2021/04/10 09:43:30;;;;;;;;;;;;;;;12.04;100.00;100824.91;5094190;28;19928;-71
2021/04/10 09:45:56;;;;;;;;;;;;;;;11.81;100.00;100826.81;5093691;28;19981;-72
2021/04/10 09:48:36;;;;;;;;;;;;;;;11.96;100.00;100824.69;5094361;28;19928;-72
2021/04/10 09:51:15;;;;;;;;;;;;;;;12.28;100.00;100818.31;5092522;28;19946;-71
2021/04/10 09:53:51;;;;;;;;;;;;;;;12.37;100.00;100831.13;5094118;28;19924;-72
2021/04/10 09:56:18;;;;;;;;;;;;;;;12.56;100.00;100820.38;5073258;28;20404;-71
2021/04/10 09:58:45;;;;;;;;;;;;;;;12.83;100.00;100827.06;5073741;28;20342;-71
2021/04/10 10:01:12;;;;;;;;;;;;;;;12.68;100.00;100829.31;5076187;28;19928;-72
2021/04/10 10:03:38;;;;;;;;;;;;;;;12.97;100.00;100819.53;5092615;28;20351;-72
2021/04/10 10:06:15;;;;;;;;;;;;;;;13.49;100.00;100820.25;5092494;28;20345;-72
2021/04/10 10:08:43;;;;;;;;;;;;;;;13.90;93.72;100823.72;5088061;28;19928;-72
2021/04/10 10:11:11;;;;;;;;;;;;;;;13.85;92.12;100833.34;5090394;28;19946;-71
2021/04/10 10:13:37;;;;;;;;;;;;;;;13.35;97.19;100834.28;5080871;28;19924;-71
2021/04/10 10:16:03;;;;;;;;;;;;;;;12.39;96.51;100838.16;5091621;28;19931;-71
2021/04/10 10:18:31;;;;;;;;;;;;;;;11.85;100.00;100841.88;5092233;28;20088;-71
2021/04/10 10:20:58;;;;;;;;;;;;;;;11.66;100.00;100839.88;5091971;28;19931;-71
2021/04/10 10:23:24;;;;;;;;;;;;;;;11.52;100.00;100835.59;5092144;28;19924;-71
2021/04/10 10:25:50;;;;;;;;;;;;;;;11.58;100.00;100839.66;5073724;28;20323;-71
2021/04/10 10:28:17;;;;;;;;;;;;;;;11.42;100.00;100846.34;5093129;28;19928;-71
2021/04/10 10:30:44;;;;;;;;;;;;;;;11.27;100.00;100839.50;5093385;28;19953;-71
2021/04/10 10:33:10;;;;;;;;;;;;;;;11.09;100.00;100848.16;5075067;28;19927;-71
2021/04/10 10:35:36;;;;;;;;;;;;;;;11.18;100.00;100849.25;5092736;28;20011;-71
2021/04/10 10:38:05;;;;;;;;;;;;;;;11.37;100.00;100844.03;5092896;28;19924;-71
2021/04/10 10:40:31;;;;;;;;;;;;;;;11.43;100.00;100850.81;5092996;28;19924;-71
2021/04/10 10:42:58;;;;;;;;;;;;;;;11.58;100.00;100847.81;5092926;28;20434;-71
2021/04/10 10:45:38;;;;;;;;;;;;;;;11.44;100.00;100857.97;5092599;28;19981;-71
2021/04/10 10:48:14;;;;;;;;;;;;;;;11.48;100.00;100858.59;5092924;28;19959;-71
2021/04/10 10:50:40;;;;;;;;;;;;;;;11.79;100.00;100861.47;5092726;28;19955;-71
2021/04/10 10:53:12;;;;;;;;;;;;;;;11.45;100.00;100865.16;5092656;28;19967;-71
2021/04/10 10:55:52;;;;;;;;;;;;;;;11.29;100.00;100865.56;5092133;28;20069;-71
2021/04/10 10:58:18;;;;;;;;;;;;;;;10.79;100.00;100865.94;5074763;28;19924;-71
2021/04/10 11:00:45;;;;;;;;;;;;;;;10.76;100.00;100866.19;5092709;28;19983;-71
2021/04/10 11:03:18;;;;;;;;;;;;;;;10.81;100.00;100871.22;5074160;28;19928;-71
2021/04/10 11:05:43;;;;;;;;;;;;;;;10.87;100.00;100871.59;5092414;28;20339;-71
2021/04/10 11:08:09;;;;;;;;;;;;;;;10.86;100.00;100871.72;5074249;28;19935;-71
2021/04/10 11:10:35;;;;;;;;;;;;;;;10.73;100.00;100866.44;5092383;28;19924;-71
2021/04/10 11:13:01;;;;;;;;;;;;;;;10.42;100.00;100876.13;5091877;28;19989;-72
2021/04/10 11:15:27;;;;;;;;;;;;;;;10.18;100.00;100877.91;5092154;28;19931;-72
2021/04/10 11:17:54;;;;;;;;;;;;;;;10.04;100.00;100883.50;5092564;28;20136;-72
2021/04/10 11:20:30;;;;;;;;;;;;;;;9.96;100.00;100888.66;5092459;28;19977;-72
2021/04/10 11:23:03;;;;;;;;;;;;;;;9.68;100.00;100891.59;5092303;28;19931;-71
2021/04/10 11:25:29;;;;;;;;;;;;;;;9.64;100.00;100891.94;5092038;28;19928;-71
2021/04/10 11:27:55;;;;;;;;;;;;;;;9.65;100.00;100893.69;5092551;28;19951;-72
2021/04/10 11:30:21;;;;;;;;;;;;;;;9.55;100.00;100898.91;5092505;28;19943;-72
2021/04/10 11:32:47;;;;;;;;;;;;;;;9.58;100.00;100897.81;5092324;28;20282;-72
2021/04/10 11:35:17;;;;;;;;;;;;;;;9.64;100.00;100900.09;5092034;28;20010;-72
2021/04/10 11:37:48;;;;;;;;;;;;;;;9.74;100.00;100906.56;5092264;28;19966;-72
2021/04/10 11:40:24;;;;;;;;;;;;;;;9.88;100.00;100914.50;5092032;28;20367;-71
2021/04/10 11:42:52;;;;;;;;;;;;;;;9.82;100.00;100905.94;5091861;28;20491;-71
2021/04/10 11:45:28;;;;;;;;;;;;;;;9.61;100.00;100901.16;5091600;28;19924;-71
2021/04/10 11:48:04;;;;;;;;;;;;;;;9.76;100.00;100912.72;5091888;28;19970;-72
2021/04/10 11:50:38;;;;;;;;;;;;;;;9.94;100.00;100906.88;5091911;28;19934;-72
2021/04/10 11:53:11;;;;;;;;;;;;;;;10.09;100.00;100908.44;5091752;28;20279;-72
2021/04/10 11:55:37;;;;;;;;;;;;;;;10.30;100.00;100915.91;5091459;28;19931;-71
2021/04/10 11:58:02;;;;;;;;;;;;;;;10.28;100.00;100913.31;5091464;28;19962;-71
2021/04/10 12:00:28;;;;;;;;;;;;;;;10.45;100.00;100916.59;5091656;28;19924;-72
2021/04/10 12:03:04;;;;;;;;;;;;;;;10.72;100.00;100910.84;5090415;28;22557;-72
2021/04/10 12:05:30;;;;;;;;;;;;;;;10.86;100.00;100907.91;5091449;28;20291;-72
2021/04/10 12:08:07;;;;;;;;;;;;;;;10.88;100.00;100908.66;5091563;28;19935;-72
2021/04/10 12:10:33;;;;;;;;;;;;;;;10.84;100.00;100901.72;5091663;28;20305;-72
2021/04/10 12:12:59;;;;;;;;;;;;;;;11.15;100.00;100901.97;5073153;28;19931;-71
2021/04/10 12:15:25;;;;;;;;;;;;;;;11.23;100.00;100904.94;5091340;28;19924;-72
2021/04/10 12:17:51;;;;;;;;;;;;;;;11.32;100.00;100916.06;5091366;28;20255;-71
2021/04/10 12:20:17;;;;;;;;;;;;;;;11.33;100.00;100917.78;5091005;28;19977;-72
2021/04/10 12:22:43;;;;;;;;;;;;;;;11.41;100.00;100918.03;5091470;28;20088;-71
2021/04/10 12:25:10;;;;;;;;;;;;;;;11.10;100.00;100915.06;5090888;28;19974;-72
2021/04/10 12:27:36;;;;;;;;;;;;;;;10.79;100.00;100920.25;5091432;28;19963;-72
2021/04/10 12:30:04;;;;;;;;;;;;;;;10.77;100.00;100924.94;5073018;28;19924;-72
2021/04/10 12:32:30;;;;;;;;;;;;;;;10.96;100.00;100909.91;5091124;28;19924;-72
2021/04/10 12:34:56;;;;;;;;;;;;;;;11.04;100.00;100912.88;5089874;28;19943;-72
2021/04/10 12:37:21;;;;;;;;;;;;;;;11.32;100.00;100913.34;5091171;28;19924;-72
2021/04/10 12:39:47;;;;;;;;;;;;;;;11.47;100.00;100919.38;5072835;28;19924;-72